KALO

Waterloo Regional Airport

Waterloo, Iowa, USA
KALO 162328Z 1700/1724 33009KT P6SM SKC FM170200 VRB03KT P6SM SKC
Issued Valid From Valid To
Jul-16 @ 23:28 UTC
(58 minutes ago)
Jul-17 @ 00:00 UTC
(26 minutes ago)
Jul-18 @ 00:00 UTC
(in 24 hours)
Jul-17 @ 00:00 to Jul-17 @ 02:00
KALO 162328Z 1700/1724 33009KT P6SM SKC
Wind Visibility Clouds
330° at 9 knots Greater than 6 miles
  • Clear skies
From Jul-17 @ 02:00 to Jul-18 @ 00:00
FM170200 VRB03KT P6SM SKC
Wind Visibility Clouds
Variable at 3 knots Greater than 6 miles
  • Clear skies
KALO 162328Z 1700/1724 33009KT P6SM SKC FM170200 VRB03KT P6SM SKC
Issued Jul-16 @ 23:28 UTC
(58 minutes ago)
Valid From Jul-17 @ 00:00 UTC
(26 minutes ago)
Valid To Jul-18 @ 00:00 UTC
(in 24 hours)
Jul-17 @ 00:00 - Jul-17 @ 02:00
Wind Visibility
330° at 9 knots Greater than 6 miles
Clouds
  • Clear skies
From Jul-17 @ 02:00 - Jul-18 @ 00:00
Wind Visibility
Variable at 3 knots Greater than 6 miles
Clouds
  • Clear skies